createdAt,value
2022-09-25T00:00:02.293Z,20.66
2022-09-25T00:00:12.294Z,20.66
2022-09-25T00:00:22.296Z,20.63
2022-09-25T00:00:32.298Z,20.66
2022-09-25T00:00:42.294Z,20.65
2022-09-25T00:00:52.277Z,20.64
2022-09-25T00:01:02.346Z,20.64
2022-09-25T00:01:12.359Z,20.66
2022-09-25T00:01:22.326Z,20.65
2022-09-25T00:01:32.389Z,20.63
2022-09-25T00:01:42.353Z,20.65
2022-09-25T00:01:52.340Z,20.65
2022-09-25T00:02:02.401Z,20.66
2022-09-25T00:02:12.368Z,20.63
2022-09-25T00:02:22.423Z,20.64
2022-09-25T00:02:32.349Z,20.65
2022-09-25T00:02:42.363Z,20.64
2022-09-25T00:02:52.363Z,20.66
2022-09-25T00:03:02.336Z,20.67
2022-09-25T00:03:12.289Z,20.64
2022-09-25T00:03:22.306Z,20.64
2022-09-25T00:03:32.309Z,20.64
2022-09-25T00:03:42.313Z,20.64
2022-09-25T00:03:52.312Z,20.64
2022-09-25T00:04:02.318Z,20.64
2022-09-25T00:04:12.485Z,20.64
2022-09-25T00:04:22.317Z,20.65
2022-09-25T00:04:32.322Z,20.64
2022-09-25T00:04:42.319Z,20.64
2022-09-25T00:04:52.321Z,20.66
2022-09-25T00:05:02.321Z,20.67
2022-09-25T00:05:12.320Z,20.65
2022-09-25T00:05:22.320Z,20.66
2022-09-25T00:05:32.322Z,20.66
2022-09-25T00:05:42.326Z,20.63
2022-09-25T00:05:52.324Z,20.65
2022-09-25T00:06:02.323Z,20.65
2022-09-25T00:06:12.325Z,20.66
2022-09-25T00:06:22.327Z,20.67
2022-09-25T00:06:32.328Z,20.66
2022-09-25T00:06:42.331Z,20.63
2022-09-25T00:06:52.329Z,20.66
2022-09-25T00:07:02.331Z,20.65
2022-09-25T00:07:12.334Z,20.66
2022-09-25T00:07:22.333Z,20.64
2022-09-25T00:07:32.331Z,20.66
2022-09-25T00:07:42.333Z,20.65
2022-09-25T00:07:52.335Z,20.65
2022-09-25T00:08:02.337Z,20.65
2022-09-25T00:08:12.339Z,20.65
2022-09-25T00:08:22.338Z,20.66
2022-09-25T00:08:32.339Z,20.64
2022-09-25T00:08:42.338Z,20.65
2022-09-25T00:08:52.340Z,20.64
2022-09-25T00:09:02.347Z,20.64
2022-09-25T00:09:12.340Z,20.64
2022-09-25T00:09:22.342Z,20.64
2022-09-25T00:09:32.345Z,20.64
2022-09-25T00:09:42.341Z,20.63
2022-09-25T00:09:52.345Z,20.65
2022-09-25T00:10:02.344Z,20.63
2022-09-25T00:10:12.348Z,20.62
2022-09-25T00:10:22.348Z,20.63
2022-09-25T00:10:32.348Z,20.63
2022-09-25T00:10:42.348Z,20.63
2022-09-25T00:10:52.349Z,20.62
2022-09-25T00:11:02.350Z,20.61
2022-09-25T00:11:12.352Z,20.61
2022-09-25T00:11:22.354Z,20.62
2022-09-25T00:11:32.335Z,20.61
2022-09-25T00:11:42.354Z,20.62
2022-09-25T00:11:52.357Z,20.62
2022-09-25T00:12:02.357Z,20.61
2022-09-25T00:12:12.358Z,20.60
2022-09-25T00:12:22.359Z,20.61
2022-09-25T00:12:32.362Z,20.60
2022-09-25T00:12:42.367Z,20.60
2022-09-25T00:12:52.362Z,20.60
2022-09-25T00:13:02.343Z,20.60
2022-09-25T00:13:12.363Z,20.61
2022-09-25T00:13:22.345Z,20.60
2022-09-25T00:13:32.366Z,20.61
2022-09-25T00:13:42.365Z,20.61
2022-09-25T00:13:52.366Z,20.61
2022-09-25T00:14:02.366Z,20.59
2022-09-25T00:14:12.433Z,20.59
2022-09-25T00:14:22.349Z,20.60
2022-09-25T00:14:32.372Z,20.60
2022-09-25T00:14:42.378Z,20.60
2022-09-25T00:14:52.380Z,20.61
2022-09-25T00:15:02.353Z,20.60
2022-09-25T00:15:12.374Z,20.60
2022-09-25T00:15:22.490Z,20.60
2022-09-25T00:15:32.375Z,20.58
2022-09-25T00:15:42.375Z,20.60
2022-09-25T00:15:52.374Z,20.59
2022-09-25T00:16:02.380Z,20.61
2022-09-25T00:16:12.386Z,20.60
2022-09-25T00:16:22.400Z,20.61
2022-09-25T00:16:32.487Z,20.60
2022-09-25T00:16:42.455Z,20.62
2022-09-25T00:16:52.407Z,20.60
2022-09-25T00:17:02.474Z,20.59
2022-09-25T00:17:12.472Z,20.60
2022-09-25T00:17:22.386Z,20.58
2022-09-25T00:17:32.393Z,20.60
2022-09-25T00:17:42.389Z,20.59
2022-09-25T00:17:52.387Z,20.58
2022-09-25T00:18:02.389Z,20.58
2022-09-25T00:18:12.392Z,20.58
2022-09-25T00:18:22.388Z,20.59
2022-09-25T00:18:32.390Z,20.59
2022-09-25T00:18:42.391Z,20.59
2022-09-25T00:18:52.391Z,20.59
2022-09-25T00:19:02.391Z,20.58
2022-09-25T00:19:12.392Z,20.59
2022-09-25T00:19:22.394Z,20.58
2022-09-25T00:19:32.398Z,20.58
2022-09-25T00:19:42.394Z,20.57
2022-09-25T00:19:52.397Z,20.56
2022-09-25T00:20:02.398Z,20.56
2022-09-25T00:20:12.396Z,20.56
2022-09-25T00:20:22.478Z,20.56
2022-09-25T00:20:32.401Z,20.58
2022-09-25T00:20:42.399Z,20.57
2022-09-25T00:20:52.389Z,20.56
2022-09-25T00:21:02.400Z,20.58
2022-09-25T00:21:12.406Z,20.58
2022-09-25T00:21:22.404Z,20.56
2022-09-25T00:21:32.387Z,20.58
2022-09-25T00:21:42.402Z,20.55
2022-09-25T00:21:52.387Z,20.56
2022-09-25T00:22:02.388Z,20.56
2022-09-25T00:22:12.407Z,20.55
2022-09-25T00:22:22.408Z,20.55
2022-09-25T00:22:32.410Z,20.56
2022-09-25T00:22:42.411Z,20.56
2022-09-25T00:22:52.414Z,20.56
2022-09-25T00:23:02.396Z,20.56
2022-09-25T00:23:12.432Z,20.56
2022-09-25T00:23:22.447Z,20.56
2022-09-25T00:23:32.415Z,20.55
2022-09-25T00:23:42.416Z,20.57
2022-09-25T00:23:52.416Z,20.57
2022-09-25T00:24:02.418Z,20.56
2022-09-25T00:24:12.590Z,20.56
2022-09-25T00:24:22.570Z,20.58
2022-09-25T00:24:32.426Z,20.56
2022-09-25T00:24:42.423Z,20.56
2022-09-25T00:24:52.425Z,20.56
2022-09-25T00:25:02.423Z,20.57
2022-09-25T00:25:12.427Z,20.56
2022-09-25T00:25:22.520Z,20.57
2022-09-25T00:25:32.409Z,20.57
2022-09-25T00:25:42.432Z,20.57
2022-09-25T00:25:52.429Z,20.56
2022-09-25T00:26:02.430Z,20.58
2022-09-25T00:26:12.431Z,20.57
2022-09-25T00:26:22.439Z,20.57
2022-09-25T00:26:32.434Z,20.58
2022-09-25T00:26:42.435Z,20.56
2022-09-25T00:26:52.437Z,20.55
2022-09-25T00:27:02.452Z,20.55
2022-09-25T00:27:12.440Z,20.54
2022-09-25T00:27:22.463Z,20.56
2022-09-25T00:27:32.442Z,20.56
2022-09-25T00:27:42.443Z,20.56
2022-09-25T00:27:52.443Z,20.55
2022-09-25T00:28:02.445Z,20.56
2022-09-25T00:28:17.583Z,20.56
2022-09-25T00:28:23.448Z,20.53
2022-09-25T00:28:32.449Z,20.53
2022-09-25T00:28:42.449Z,20.55
2022-09-25T00:28:52.454Z,20.52
2022-09-25T00:29:02.433Z,20.54
2022-09-25T00:29:12.454Z,20.55
2022-09-25T00:29:22.483Z,20.54
2022-09-25T00:29:32.456Z,20.54
2022-09-25T00:29:42.456Z,20.54
2022-09-25T00:29:52.457Z,20.53
2022-09-25T00:30:02.457Z,20.52
2022-09-25T00:30:12.457Z,20.53
2022-09-25T00:30:22.570Z,20.52
2022-09-25T00:30:32.503Z,20.51
2022-09-25T00:30:42.485Z,20.52
2022-09-25T00:30:52.493Z,20.53
2022-09-25T00:31:02.502Z,20.53
2022-09-25T00:31:12.516Z,20.52
2022-09-25T00:31:22.534Z,20.53
2022-09-25T00:31:32.467Z,20.51
2022-09-25T00:31:42.462Z,20.52
2022-09-25T00:31:52.462Z,20.52
2022-09-25T00:32:02.466Z,20.52
2022-09-25T00:32:12.465Z,20.53
2022-09-25T00:32:22.473Z,20.53
2022-09-25T00:32:32.467Z,20.51
2022-09-25T00:32:42.465Z,20.52
2022-09-25T00:32:52.466Z,20.52
2022-09-25T00:33:02.467Z,20.53
2022-09-25T00:33:12.468Z,20.52
2022-09-25T00:33:22.489Z,20.53
2022-09-25T00:33:32.469Z,20.52
2022-09-25T00:33:42.469Z,20.53
2022-09-25T00:33:52.473Z,20.52
2022-09-25T00:34:02.540Z,20.52
2022-09-25T00:34:12.556Z,20.51
2022-09-25T00:34:22.475Z,20.52
2022-09-25T00:34:32.475Z,20.52
2022-09-25T00:34:42.474Z,20.50
2022-09-25T00:34:52.478Z,20.51
2022-09-25T00:35:02.476Z,20.52
2022-09-25T00:35:12.474Z,20.52
2022-09-25T00:35:22.508Z,20.53
2022-09-25T00:35:32.558Z,20.52
2022-09-25T00:35:42.478Z,20.51
2022-09-25T00:35:52.480Z,20.52
2022-09-25T00:36:02.480Z,20.51
2022-09-25T00:36:12.483Z,20.52
2022-09-25T00:36:22.510Z,20.52
2022-09-25T00:36:32.493Z,20.53
2022-09-25T00:36:42.487Z,20.51
2022-09-25T00:36:52.485Z,20.51
2022-09-25T00:37:02.484Z,20.52
2022-09-25T00:37:12.486Z,20.51
2022-09-25T00:37:22.487Z,20.52
2022-09-25T00:37:32.489Z,20.53
2022-09-25T00:37:42.498Z,20.51
2022-09-25T00:37:52.493Z,20.51
2022-09-25T00:38:02.491Z,20.50
2022-09-25T00:38:12.492Z,20.49
2022-09-25T00:38:22.493Z,20.49
2022-09-25T00:38:32.491Z,20.52
2022-09-25T00:38:42.493Z,20.52
2022-09-25T00:38:52.497Z,20.51
2022-09-25T00:39:02.496Z,20.51
2022-09-25T00:39:12.500Z,20.51
2022-09-25T00:39:22.502Z,20.52
2022-09-25T00:39:32.500Z,20.49
2022-09-25T00:39:42.500Z,20.49
2022-09-25T00:39:52.500Z,20.50
2022-09-25T00:40:02.501Z,20.50
2022-09-25T00:40:12.548Z,20.51
2022-09-25T00:40:22.557Z,20.49
2022-09-25T00:40:32.584Z,20.50
2022-09-25T00:40:42.575Z,20.51
2022-09-25T00:40:52.556Z,20.51
2022-09-25T00:41:02.506Z,20.50
2022-09-25T00:41:12.506Z,20.49
2022-09-25T00:41:22.508Z,20.49
2022-09-25T00:41:32.515Z,20.50
2022-09-25T00:41:42.510Z,20.49
2022-09-25T00:41:52.515Z,20.49
2022-09-25T00:42:02.517Z,20.50
2022-09-25T00:42:12.519Z,20.49
2022-09-25T00:42:22.517Z,20.49
2022-09-25T00:42:32.517Z,20.49
2022-09-25T00:42:42.517Z,20.49
2022-09-25T00:42:52.520Z,20.48
2022-09-25T00:43:02.518Z,20.48
2022-09-25T00:43:12.519Z,20.49
2022-09-25T00:43:22.520Z,20.48
2022-09-25T00:43:32.521Z,20.48
2022-09-25T00:43:42.521Z,20.48
2022-09-25T00:43:52.524Z,20.49
2022-09-25T00:44:02.677Z,20.48
2022-09-25T00:44:12.553Z,20.50
2022-09-25T00:44:22.526Z,20.49
2022-09-25T00:44:32.529Z,20.48
2022-09-25T00:44:42.526Z,20.49
2022-09-25T00:44:52.514Z,20.49
2022-09-25T00:45:02.513Z,20.48
2022-09-25T00:45:12.530Z,20.48
2022-09-25T00:45:22.531Z,20.48
2022-09-25T00:45:32.531Z,20.48
2022-09-25T00:45:42.586Z,20.48
2022-09-25T00:45:52.580Z,20.49
2022-09-25T00:46:02.573Z,20.48
2022-09-25T00:46:12.723Z,20.47
2022-09-25T00:46:22.655Z,20.49
2022-09-25T00:46:32.603Z,20.47
2022-09-25T00:46:42.544Z,20.48
2022-09-25T00:46:52.551Z,20.46
2022-09-25T00:47:02.539Z,20.47
2022-09-25T00:47:12.541Z,20.46
2022-09-25T00:47:22.541Z,20.47
2022-09-25T00:47:32.541Z,20.46
2022-09-25T00:47:42.541Z,20.46
2022-09-25T00:47:52.573Z,20.48
2022-09-25T00:48:02.549Z,20.45
2022-09-25T00:48:12.525Z,20.46
2022-09-25T00:48:22.548Z,20.48
2022-09-25T00:48:32.545Z,20.46
2022-09-25T00:48:42.546Z,20.47
2022-09-25T00:48:52.549Z,20.47
2022-09-25T00:49:02.545Z,20.46
2022-09-25T00:49:12.551Z,20.47
2022-09-25T00:49:22.548Z,20.47
2022-09-25T00:49:32.556Z,20.45
2022-09-25T00:49:42.550Z,20.47
2022-09-25T00:49:52.549Z,20.48
2022-09-25T00:50:02.551Z,20.48
2022-09-25T00:50:12.557Z,20.46
2022-09-25T00:50:22.555Z,20.48
2022-09-25T00:50:32.554Z,20.46
2022-09-25T00:50:42.558Z,20.46
2022-09-25T00:50:52.565Z,20.47
2022-09-25T00:51:02.559Z,20.47
2022-09-25T00:51:12.558Z,20.47
2022-09-25T00:51:22.580Z,20.47
2022-09-25T00:51:32.565Z,20.47
2022-09-25T00:51:42.562Z,20.45
2022-09-25T00:51:54.853Z,20.46
2022-09-25T00:52:02.564Z,20.44
2022-09-25T00:52:12.564Z,20.45
2022-09-25T00:52:22.569Z,20.45
2022-09-25T00:52:32.565Z,20.45
2022-09-25T00:52:42.567Z,20.45
2022-09-25T00:52:52.567Z,20.45
2022-09-25T00:53:02.569Z,20.44
2022-09-25T00:53:12.570Z,20.45
2022-09-25T00:53:22.573Z,20.44
2022-09-25T00:53:32.572Z,20.44
2022-09-25T00:53:42.575Z,20.44
2022-09-25T00:53:52.581Z,20.43
2022-09-25T00:54:02.677Z,20.44
2022-09-25T00:54:12.706Z,20.43
2022-09-25T00:54:22.579Z,20.43
2022-09-25T00:54:32.591Z,20.44
2022-09-25T00:54:42.577Z,20.45
2022-09-25T00:54:52.581Z,20.44
2022-09-25T00:55:02.581Z,20.43
2022-09-25T00:55:12.587Z,20.45
2022-09-25T00:55:22.583Z,20.45
2022-09-25T00:55:32.584Z,20.44
2022-09-25T00:55:42.583Z,20.45
2022-09-25T00:55:52.585Z,20.44
2022-09-25T00:56:02.584Z,20.44
2022-09-25T00:56:12.589Z,20.43
2022-09-25T00:56:22.583Z,20.41
2022-09-25T00:56:32.585Z,20.43
2022-09-25T00:56:42.586Z,20.43
2022-09-25T00:56:52.588Z,20.42
2022-09-25T00:57:02.589Z,20.41
2022-09-25T00:57:12.589Z,20.40
2022-09-25T00:57:22.593Z,20.42
2022-09-25T00:57:32.590Z,20.42
2022-09-25T00:57:42.594Z,20.43
2022-09-25T00:57:52.591Z,20.41
2022-09-25T00:58:02.591Z,20.41
2022-09-25T00:58:12.593Z,20.43
2022-09-25T00:58:22.594Z,20.42
2022-09-25T00:58:32.593Z,20.41
2022-09-25T00:58:42.622Z,20.41
2022-09-25T00:58:52.596Z,20.41
2022-09-25T00:59:02.597Z,20.41
2022-09-25T00:59:12.599Z,20.41
2022-09-25T00:59:22.600Z,20.43
2022-09-25T00:59:32.618Z,20.42
2022-09-25T00:59:42.604Z,20.42
2022-09-25T00:59:52.601Z,20.42
2022-09-25T01:00:02.602Z,20.43
2022-09-25T01:00:12.604Z,20.43
2022-09-25T01:00:22.604Z,20.42
2022-09-25T01:00:32.603Z,20.42
2022-09-25T01:00:42.604Z,20.43
2022-09-25T01:00:52.699Z,20.43
2022-09-25T01:01:02.658Z,20.43
2022-09-25T01:01:12.647Z,20.41
2022-09-25T01:01:22.713Z,20.41
2022-09-25T01:01:32.632Z,20.41
2022-09-25T01:01:42.671Z,20.41
2022-09-25T01:01:52.735Z,20.40
2022-09-25T01:02:02.658Z,20.42
2022-09-25T01:02:12.662Z,20.41
2022-09-25T01:02:22.672Z,20.40
2022-09-25T01:02:32.681Z,20.41
2022-09-25T01:02:42.645Z,20.42
2022-09-25T01:02:52.660Z,20.42
2022-09-25T01:03:02.617Z,20.41
2022-09-25T01:03:12.617Z,20.42
2022-09-25T01:03:22.622Z,20.42
2022-09-25T01:03:32.621Z,20.41
2022-09-25T01:03:42.621Z,20.40
2022-09-25T01:03:52.623Z,20.42
2022-09-25T01:04:02.769Z,20.42
2022-09-25T01:04:12.642Z,20.41
2022-09-25T01:04:22.625Z,20.42
2022-09-25T01:04:32.641Z,20.41
2022-09-25T01:04:42.629Z,20.41
2022-09-25T01:04:52.632Z,20.41
2022-09-25T01:05:02.613Z,20.41
2022-09-25T01:05:12.633Z,20.41
2022-09-25T01:05:22.634Z,20.41
2022-09-25T01:05:32.631Z,20.41
2022-09-25T01:05:42.634Z,20.41
2022-09-25T01:05:52.634Z,20.43
2022-09-25T01:06:02.637Z,20.40
2022-09-25T01:06:12.637Z,20.42
2022-09-25T01:06:22.637Z,20.42
2022-09-25T01:06:32.661Z,20.43
2022-09-25T01:06:42.640Z,20.41
2022-09-25T01:06:52.638Z,20.42
2022-09-25T01:07:02.647Z,20.40
2022-09-25T01:07:12.640Z,20.41
2022-09-25T01:07:22.642Z,20.41
2022-09-25T01:07:32.642Z,20.41
2022-09-25T01:07:42.627Z,20.41
2022-09-25T01:07:52.645Z,20.41
2022-09-25T01:08:02.644Z,20.39
2022-09-25T01:08:12.655Z,20.41
2022-09-25T01:08:22.648Z,20.42
2022-09-25T01:08:32.647Z,20.41
2022-09-25T01:08:42.648Z,20.40
2022-09-25T01:08:52.649Z,20.40
2022-09-25T01:09:02.648Z,20.39
2022-09-25T01:09:12.632Z,20.40
2022-09-25T01:09:22.649Z,20.39
2022-09-25T01:09:32.673Z,20.39
2022-09-25T01:09:42.652Z,20.41
2022-09-25T01:09:52.652Z,20.39
2022-09-25T01:10:02.656Z,20.40
2022-09-25T01:10:12.655Z,20.38
2022-09-25T01:10:22.656Z,20.39
2022-09-25T01:10:32.657Z,20.37
2022-09-25T01:10:42.655Z,20.39
2022-09-25T01:10:52.658Z,20.38
2022-09-25T01:11:02.656Z,20.39
2022-09-25T01:11:12.659Z,20.39
2022-09-25T01:11:22.658Z,20.38
2022-09-25T01:11:32.662Z,20.38
2022-09-25T01:11:42.659Z,20.38
2022-09-25T01:11:52.661Z,20.39
2022-09-25T01:12:02.660Z,20.38
2022-09-25T01:12:12.664Z,20.36
2022-09-25T01:12:22.664Z,20.39
2022-09-25T01:12:32.646Z,20.38
2022-09-25T01:12:42.666Z,20.38
2022-09-25T01:12:52.666Z,20.39
2022-09-25T01:13:02.668Z,20.38
2022-09-25T01:13:12.667Z,20.39
2022-09-25T01:13:22.670Z,20.39
2022-09-25T01:13:32.670Z,20.38
2022-09-25T01:13:42.674Z,20.41
2022-09-25T01:13:52.673Z,20.39
2022-09-25T01:14:02.804Z,20.40
2022-09-25T01:14:12.707Z,20.38
2022-09-25T01:14:22.675Z,20.39
2022-09-25T01:14:32.691Z,20.39
2022-09-25T01:14:42.679Z,20.38
2022-09-25T01:14:52.679Z,20.39
2022-09-25T01:15:02.679Z,20.40
2022-09-25T01:15:12.663Z,20.40
2022-09-25T01:15:22.684Z,20.40
2022-09-25T01:15:32.683Z,20.40
2022-09-25T01:15:42.766Z,20.39
2022-09-25T01:15:52.686Z,20.39
2022-09-25T01:16:02.696Z,20.37
2022-09-25T01:16:12.740Z,20.38
2022-09-25T01:16:22.742Z,20.40
2022-09-25T01:16:32.765Z,20.40
2022-09-25T01:16:42.734Z,20.40
2022-09-25T01:16:52.762Z,20.40
2022-09-25T01:17:02.778Z,20.40
2022-09-25T01:17:12.690Z,20.40
2022-09-25T01:17:22.691Z,20.38
2022-09-25T01:17:32.691Z,20.39
2022-09-25T01:17:42.695Z,20.38
2022-09-25T01:17:52.675Z,20.40
2022-09-25T01:18:02.699Z,20.40
2022-09-25T01:18:12.699Z,20.40
2022-09-25T01:18:22.721Z,20.39
2022-09-25T01:18:32.697Z,20.40
2022-09-25T01:18:42.700Z,20.40
2022-09-25T01:18:52.699Z,20.39
2022-09-25T01:19:02.684Z,20.39
2022-09-25T01:19:12.701Z,20.40
2022-09-25T01:19:22.684Z,20.38
2022-09-25T01:19:32.718Z,20.39
2022-09-25T01:19:42.703Z,20.38
2022-09-25T01:19:53.128Z,20.40
2022-09-25T01:20:02.694Z,20.39
2022-09-25T01:20:12.707Z,20.39
2022-09-25T01:20:22.707Z,20.38
2022-09-25T01:20:32.707Z,20.40
2022-09-25T01:20:42.709Z,20.39
2022-09-25T01:20:52.710Z,20.38
2022-09-25T01:21:02.711Z,20.39
2022-09-25T01:21:12.711Z,20.39
2022-09-25T01:21:22.696Z,20.39
2022-09-25T01:21:32.712Z,20.40
2022-09-25T01:21:42.712Z,20.39
2022-09-25T01:21:52.715Z,20.40
2022-09-25T01:22:02.715Z,20.41
2022-09-25T01:22:12.716Z,20.41
2022-09-25T01:22:22.723Z,20.40
2022-09-25T01:22:32.718Z,20.42
2022-09-25T01:22:42.720Z,20.39
2022-09-25T01:22:52.725Z,20.40
2022-09-25T01:23:02.724Z,20.42
2022-09-25T01:23:12.721Z,20.42
2022-09-25T01:23:22.725Z,20.42
2022-09-25T01:23:32.706Z,20.42
2022-09-25T01:23:42.724Z,20.43
2022-09-25T01:23:52.726Z,20.43
2022-09-25T01:24:02.727Z,20.43
2022-09-25T01:24:12.733Z,20.43
2022-09-25T01:24:22.728Z,20.41
2022-09-25T01:24:32.777Z,20.44
2022-09-25T01:24:42.729Z,20.43
2022-09-25T01:24:52.728Z,20.45
2022-09-25T01:25:02.733Z,20.44
2022-09-25T01:25:12.733Z,20.43
2022-09-25T01:25:22.736Z,20.42
2022-09-25T01:25:32.739Z,20.44
2022-09-25T01:25:42.737Z,20.43
2022-09-25T01:25:52.739Z,20.44
2022-09-25T01:26:02.739Z,20.45
2022-09-25T01:26:15.803Z,20.43
2022-09-25T01:26:22.723Z,20.43
2022-09-25T01:26:32.740Z,20.42
2022-09-25T01:26:42.744Z,20.43
2022-09-25T01:26:52.746Z,20.42
2022-09-25T01:27:02.746Z,20.41
2022-09-25T01:27:12.748Z,20.43
2022-09-25T01:27:22.749Z,20.43
2022-09-25T01:27:32.749Z,20.43
2022-09-25T01:27:42.752Z,20.43
2022-09-25T01:27:52.754Z,20.44
2022-09-25T01:28:02.739Z,20.43
2022-09-25T01:28:12.755Z,20.44
2022-09-25T01:28:22.757Z,20.43
2022-09-25T01:28:32.757Z,20.44
2022-09-25T01:28:42.758Z,20.44
2022-09-25T01:28:52.760Z,20.44
2022-09-25T01:29:02.760Z,20.45
2022-09-25T01:29:12.760Z,20.43
2022-09-25T01:29:22.761Z,20.43
2022-09-25T01:29:32.762Z,20.42
2022-09-25T01:29:42.764Z,20.45
2022-09-25T01:29:52.764Z,20.45
2022-09-25T01:30:02.764Z,20.46
2022-09-25T01:30:12.771Z,20.45
2022-09-25T01:30:22.768Z,20.46
2022-09-25T01:30:32.831Z,20.46
2022-09-25T01:30:42.812Z,20.45
2022-09-25T01:30:52.893Z,20.46
2022-09-25T01:31:02.829Z,20.45
2022-09-25T01:31:12.849Z,20.45
2022-09-25T01:31:22.851Z,20.46
2022-09-25T01:31:32.772Z,20.45
2022-09-25T01:31:42.772Z,20.46
2022-09-25T01:31:52.775Z,20.45
2022-09-25T01:32:02.774Z,20.45
2022-09-25T01:32:12.776Z,20.46
2022-09-25T01:32:22.777Z,20.45
2022-09-25T01:32:32.779Z,20.46
2022-09-25T01:32:42.780Z,20.46
2022-09-25T01:32:52.784Z,20.46
2022-09-25T01:33:02.780Z,20.46
2022-09-25T01:33:12.780Z,20.47
2022-09-25T01:33:22.781Z,20.48
2022-09-25T01:33:32.789Z,20.48
2022-09-25T01:33:42.784Z,20.46
2022-09-25T01:33:52.787Z,20.46
2022-09-25T01:34:02.790Z,20.44
2022-09-25T01:34:12.824Z,20.44
2022-09-25T01:34:22.791Z,20.45
2022-09-25T01:34:32.804Z,20.45
2022-09-25T01:34:42.789Z,20.45
2022-09-25T01:34:52.793Z,20.44
2022-09-25T01:35:02.795Z,20.45
2022-09-25T01:35:12.794Z,20.44
2022-09-25T01:35:22.794Z,20.45
2022-09-25T01:35:32.793Z,20.44
2022-09-25T01:35:42.793Z,20.46
2022-09-25T01:35:52.795Z,20.47
2022-09-25T01:36:02.795Z,20.45
2022-09-25T01:36:12.798Z,20.45
2022-09-25T01:36:22.799Z,20.45
2022-09-25T01:36:32.799Z,20.46
2022-09-25T01:36:42.799Z,20.45
2022-09-25T01:36:52.806Z,20.47
2022-09-25T01:37:02.800Z,20.45
2022-09-25T01:37:12.804Z,20.46
2022-09-25T01:37:22.803Z,20.45
2022-09-25T01:37:32.803Z,20.46
2022-09-25T01:37:42.804Z,20.46
2022-09-25T01:37:52.805Z,20.47
2022-09-25T01:38:02.835Z,20.45
2022-09-25T01:38:12.806Z,20.45
2022-09-25T01:38:22.807Z,20.46
2022-09-25T01:38:32.808Z,20.45
2022-09-25T01:38:42.812Z,20.46
2022-09-25T01:38:52.815Z,20.44
2022-09-25T01:39:02.811Z,20.46
2022-09-25T01:39:12.811Z,20.45
2022-09-25T01:39:22.818Z,20.44
2022-09-25T01:39:32.829Z,20.47
2022-09-25T01:39:42.814Z,20.45
2022-09-25T01:39:52.815Z,20.46
2022-09-25T01:40:02.818Z,20.45
2022-09-25T01:40:12.843Z,20.47
2022-09-25T01:40:22.888Z,20.46
2022-09-25T01:40:32.869Z,20.47
2022-09-25T01:40:42.851Z,20.47
2022-09-25T01:40:52.874Z,20.47
2022-09-25T01:41:02.822Z,20.45
2022-09-25T01:41:12.823Z,20.45
2022-09-25T01:41:22.823Z,20.46
2022-09-25T01:41:32.830Z,20.45
2022-09-25T01:41:42.825Z,20.46
2022-09-25T01:41:52.824Z,20.45
2022-09-25T01:42:02.830Z,20.47
2022-09-25T01:42:12.829Z,20.47
2022-09-25T01:42:22.826Z,20.46
2022-09-25T01:42:32.826Z,20.46
2022-09-25T01:42:42.829Z,20.46
2022-09-25T01:42:52.829Z,20.48
2022-09-25T01:43:02.832Z,20.48
2022-09-25T01:43:12.834Z,20.48
2022-09-25T01:43:22.830Z,20.48
2022-09-25T01:43:32.831Z,20.49
2022-09-25T01:43:42.832Z,20.50
2022-09-25T01:43:52.838Z,20.48
2022-09-25T01:44:02.850Z,20.49
2022-09-25T01:44:12.883Z,20.48
2022-09-25T01:44:22.820Z,20.48
2022-09-25T01:44:32.869Z,20.48
2022-09-25T01:44:42.839Z,20.52
2022-09-25T01:44:52.839Z,20.51
2022-09-25T01:45:02.839Z,20.51
2022-09-25T01:45:12.841Z,20.50
2022-09-25T01:45:22.843Z,20.49
2022-09-25T01:45:32.846Z,20.51
2022-09-25T01:45:42.912Z,20.50
2022-09-25T01:45:52.885Z,20.52
2022-09-25T01:46:02.920Z,20.52
2022-09-25T01:46:12.918Z,20.50
2022-09-25T01:46:22.972Z,20.50
2022-09-25T01:46:32.874Z,20.50
2022-09-25T01:46:42.852Z,20.49
2022-09-25T01:46:52.853Z,20.50
2022-09-25T01:47:02.854Z,20.51
2022-09-25T01:47:12.854Z,20.51
2022-09-25T01:47:22.857Z,20.51
2022-09-25T01:47:32.856Z,20.52
2022-09-25T01:47:42.864Z,20.52
2022-09-25T01:47:52.860Z,20.52
2022-09-25T01:48:02.865Z,20.51
2022-09-25T01:48:12.860Z,20.53
2022-09-25T01:48:22.861Z,20.51
2022-09-25T01:48:32.861Z,20.51
2022-09-25T01:48:42.863Z,20.52
2022-09-25T01:48:52.846Z,20.51
2022-09-25T01:49:02.865Z,20.49
2022-09-25T01:49:12.864Z,20.50
2022-09-25T01:49:22.868Z,20.52
2022-09-25T01:49:32.868Z,20.51
2022-09-25T01:49:42.871Z,20.52
2022-09-25T01:49:52.870Z,20.50
2022-09-25T01:50:02.872Z,20.51
2022-09-25T01:50:12.870Z,20.52
2022-09-25T01:50:22.879Z,20.51
2022-09-25T01:50:32.873Z,20.51
2022-09-25T01:50:42.876Z,20.51
2022-09-25T01:50:52.876Z,20.52
2022-09-25T01:51:02.882Z,20.52
2022-09-25T01:51:12.878Z,20.51
2022-09-25T01:51:22.974Z,20.51
2022-09-25T01:51:32.880Z,20.50
2022-09-25T01:51:42.879Z,20.51
2022-09-25T01:51:54.872Z,20.52
2022-09-25T01:52:02.882Z,20.50
2022-09-25T01:52:12.882Z,20.51
2022-09-25T01:52:22.887Z,20.50
2022-09-25T01:52:32.889Z,20.51
2022-09-25T01:52:42.886Z,20.50
2022-09-25T01:52:52.885Z,20.52
2022-09-25T01:53:02.884Z,20.50
2022-09-25T01:53:12.887Z,20.51
2022-09-25T01:53:22.887Z,20.51
2022-09-25T01:53:32.897Z,20.50
2022-09-25T01:53:45.777Z,20.52
2022-09-25T01:53:52.894Z,20.48
2022-09-25T01:54:02.892Z,20.49
2022-09-25T01:54:12.913Z,20.50
2022-09-25T01:54:22.898Z,20.48
2022-09-25T01:54:32.898Z,20.49
2022-09-25T01:54:42.899Z,20.50
2022-09-25T01:54:52.894Z,20.51
2022-09-25T01:55:02.896Z,20.51
2022-09-25T01:55:12.898Z,20.49
2022-09-25T01:55:22.903Z,20.50
2022-09-25T01:55:32.903Z,20.51
2022-09-25T01:55:42.904Z,20.50
2022-09-25T01:55:52.905Z,20.52
2022-09-25T01:56:02.901Z,20.53
2022-09-25T01:56:12.902Z,20.51
2022-09-25T01:56:22.903Z,20.51
2022-09-25T01:56:33.031Z,20.52
2022-09-25T01:56:42.906Z,20.51
2022-09-25T01:56:52.907Z,20.51
2022-09-25T01:57:02.910Z,20.51
2022-09-25T01:57:12.908Z,20.52
2022-09-25T01:57:22.911Z,20.51
2022-09-25T01:57:32.894Z,20.52
2022-09-25T01:57:42.912Z,20.51
2022-09-25T01:57:52.920Z,20.52
2022-09-25T01:58:02.898Z,20.51
2022-09-25T01:58:12.899Z,20.52
2022-09-25T01:58:22.919Z,20.52
2022-09-25T01:58:32.921Z,20.52
2022-09-25T01:58:42.922Z,20.51
2022-09-25T01:58:52.919Z,20.52
2022-09-25T01:59:02.921Z,20.52
2022-09-25T01:59:12.922Z,20.53
2022-09-25T01:59:22.927Z,20.52
2022-09-25T01:59:32.923Z,20.52
2022-09-25T01:59:42.929Z,20.50
2022-09-25T01:59:52.925Z,20.50
2022-09-25T02:00:02.924Z,20.51
2022-09-25T02:00:12.910Z,20.51
2022-09-25T02:00:22.926Z,20.51
2022-09-25T02:00:32.926Z,20.52
2022-09-25T02:00:42.927Z,20.51
2022-09-25T02:00:52.930Z,20.51
2022-09-25T02:01:02.975Z,20.50
2022-09-25T02:01:12.962Z,20.51
2022-09-25T02:01:22.986Z,20.52
2022-09-25T02:01:32.975Z,20.52
2022-09-25T02:01:43.050Z,20.50
2022-09-25T02:01:53.003Z,20.51
2022-09-25T02:02:02.967Z,20.50
2022-09-25T02:02:13.017Z,20.51
2022-09-25T02:02:23.027Z,20.51
2022-09-25T02:02:32.979Z,20.51
2022-09-25T02:02:43.116Z,20.52
2022-09-25T02:02:52.954Z,20.52
2022-09-25T02:03:03.015Z,20.51
2022-09-25T02:03:12.923Z,20.52
2022-09-25T02:03:22.941Z,20.52
2022-09-25T02:03:32.944Z,20.52
2022-09-25T02:03:42.943Z,20.52
2022-09-25T02:03:52.946Z,20.49
2022-09-25T02:04:02.946Z,20.51
2022-09-25T02:04:13.049Z,20.52
2022-09-25T02:04:22.946Z,20.51
2022-09-25T02:04:32.951Z,20.52
2022-09-25T02:04:42.936Z,20.52
2022-09-25T02:04:52.953Z,20.51
2022-09-25T02:05:02.953Z,20.51
2022-09-25T02:05:12.953Z,20.51
2022-09-25T02:05:22.953Z,20.52
2022-09-25T02:05:32.955Z,20.52
2022-09-25T02:05:42.956Z,20.50
2022-09-25T02:05:52.963Z,20.51
2022-09-25T02:06:02.955Z,20.50
2022-09-25T02:06:12.955Z,20.51
2022-09-25T02:06:22.955Z,20.51
2022-09-25T02:06:32.956Z,20.51
2022-09-25T02:06:42.956Z,20.52
2022-09-25T02:06:52.958Z,20.52
2022-09-25T02:07:02.962Z,20.52
2022-09-25T02:07:12.960Z,20.52
2022-09-25T02:07:22.960Z,20.51
2022-09-25T02:07:32.960Z,20.52
2022-09-25T02:07:42.962Z,20.51
2022-09-25T02:07:52.965Z,20.50
2022-09-25T02:08:02.964Z,20.51
2022-09-25T02:08:12.962Z,20.53
2022-09-25T02:08:22.966Z,20.52
2022-09-25T02:08:32.968Z,20.51
2022-09-25T02:08:42.968Z,20.51